Time;durP1;ratioP1;P1;durP2;ratioP2;P2;SDS_P1;SDS_P2;PMS_P1;PMS_P2;Temp;Humidity;BMP_temperature;BMP_pressure;BME280_temperature;BME280_humidity;BME280_pressure;Samples;Min_cycle;Max_cycle;Signal;HPM_P1;HPM_P2
2024/01/09 00:01:08;;;;;;;26.37;10.80;;;;;;;2.28;73.04;100476.47;4993246;28;20069;-85
2024/01/09 00:03:34;;;;;;;26.70;10.43;;;;;;;2.23;72.43;100470.25;4993035;28;20092;-81
2024/01/09 00:06:00;;;;;;;26.17;10.55;;;;;;;2.18;72.56;100477.00;4996012;28;20494;-84
2024/01/09 00:08:25;;;;;;;29.30;11.37;;;;;;;2.14;73.03;100478.63;4990447;28;20046;-78
2024/01/09 00:10:51;;;;;;;28.63;11.13;;;;;;;2.10;72.75;100478.47;4994236;28;20092;-82
2024/01/09 00:13:16;;;;;;;27.53;11.30;;;;;;;2.04;73.36;100473.94;4992988;28;20483;-79
2024/01/09 00:15:42;;;;;;;29.37;11.57;;;;;;;1.98;72.78;100474.63;4992741;28;20026;-84
2024/01/09 00:18:07;;;;;;;26.70;11.50;;;;;;;1.93;72.84;100473.59;4992676;28;20030;-84
2024/01/09 00:20:33;;;;;;;31.50;12.70;;;;;;;1.87;73.44;100470.78;4992870;28;20788;-83
2024/01/09 00:22:58;;;;;;;25.90;11.10;;;;;;;1.82;72.84;100472.34;4991415;28;20040;-79
2024/01/09 00:25:24;;;;;;;26.40;10.93;;;;;;;1.75;73.42;100480.72;5002630;28;20026;-79
2024/01/09 00:27:49;;;;;;;27.93;10.67;;;;;;;1.70;73.54;100484.03;4993404;28;20109;-80
2024/01/09 00:30:14;;;;;;;28.77;11.10;;;;;;;1.66;73.27;100482.19;4993200;28;20030;-78
2024/01/09 00:32:46;;;;;;;26.83;11.67;;;;;;;1.62;73.16;100488.09;4993059;28;20034;-79
2024/01/09 00:35:14;;;;;;;29.25;11.70;;;;;;;1.57;72.99;100492.25;5011884;28;20546;-81
2024/01/09 00:37:40;;;;;;;28.38;12.50;;;;;;;1.52;73.87;100493.75;5012725;28;20053;-80
2024/01/09 00:40:06;;;;;;;31.60;12.87;;;;;;;1.48;73.87;100497.06;5010976;28;20018;-79
2024/01/09 00:42:31;;;;;;;27.77;11.80;;;;;;;1.44;73.50;100498.66;5012761;28;20028;-80
2024/01/09 00:45:00;;;;;;;27.93;13.33;;;;;;;1.40;73.71;100484.72;5012190;28;20018;-79
2024/01/09 00:47:26;;;;;;;29.67;12.98;;;;;;;1.39;73.54;100488.13;5012702;28;20038;-79
2024/01/09 00:49:51;;;;;;;31.03;13.03;;;;;;;1.38;73.33;100493.25;5012332;28;20411;-80
2024/01/09 00:52:17;;;;;;;33.93;13.70;;;;;;;1.34;73.98;100489.69;4997342;28;20050;-79
2024/01/09 00:54:43;;;;;;;36.53;14.40;;;;;;;1.33;73.01;100487.03;4992804;28;20273;-79
2024/01/09 00:57:09;;;;;;;32.38;14.13;;;;;;;1.31;73.95;100493.88;4992691;28;20037;-79
2024/01/09 00:59:34;;;;;;;37.60;15.60;;;;;;;1.27;73.67;100485.97;4992404;28;20058;-79
2024/01/09 01:01:59;;;;;;;34.22;14.10;;;;;;;1.25;73.22;100484.13;4992127;28;20037;-78
2024/01/09 01:04:25;;;;;;;33.33;14.67;;;;;;;1.22;73.91;100484.91;4993859;28;20379;-80
2024/01/09 01:06:50;;;;;;;34.80;14.23;;;;;;;1.20;73.66;100488.28;5012094;28;20482;-78
2024/01/09 01:09:16;;;;;;;35.87;14.07;;;;;;;1.16;73.63;100494.19;5011653;28;20036;-79
2024/01/09 01:11:41;;;;;;;32.07;12.87;;;;;;;1.14;73.51;100492.41;5012088;28;20054;-80
2024/01/09 01:14:06;;;;;;;33.92;14.05;;;;;;;1.11;73.59;100486.22;5011427;28;20178;-79
2024/01/09 01:16:32;;;;;;;31.27;13.70;;;;;;;1.09;73.78;100482.69;4996559;28;20482;-78
2024/01/09 01:18:57;;;;;;;35.27;14.43;;;;;;;1.05;73.61;100484.25;4992253;28;20026;-80
2024/01/09 01:21:23;;;;;;;38.60;16.10;;;;;;;1.05;73.54;100485.97;4992370;28;20544;-78
2024/01/09 01:23:49;;;;;;;34.42;14.65;;;;;;;1.02;73.30;100483.28;4992901;28;20027;-79
2024/01/09 01:26:14;;;;;;;34.43;14.40;;;;;;;0.99;73.65;100481.44;5000730;28;20034;-81
2024/01/09 01:28:40;;;;;;;34.15;14.63;;;;;;;0.97;73.40;100484.00;4992261;28;20121;-79
2024/01/09 01:31:05;;;;;;;42.50;17.43;;;;;;;0.94;73.35;100488.16;4991887;28;20053;-79
2024/01/09 01:33:31;;;;;;;42.60;17.23;;;;;;;0.90;73.31;100489.75;4974533;28;20473;-79
2024/01/09 01:35:56;;;;;;;37.70;15.38;;;;;;;0.87;73.03;100488.75;4991966;28;20455;-80
2024/01/09 01:38:21;;;;;;;39.97;16.60;;;;;;;0.84;73.31;100493.00;4991982;28;20037;-79
2024/01/09 01:40:47;;;;;;;43.90;17.60;;;;;;;0.80;73.57;100496.28;4974470;28;20041;-80
2024/01/09 01:43:12;;;;;;;40.47;16.87;;;;;;;0.79;73.49;100486.72;4991981;28;20033;-80
2024/01/09 01:45:38;;;;;;;39.97;17.30;;;;;;;0.77;73.11;100498.75;4991566;28;20026;-79
2024/01/09 01:48:04;;;;;;;41.75;18.75;;;;;;;0.69;73.61;100502.75;4991640;28;20117;-80
2024/01/09 01:50:31;;;;;;;36.23;17.07;;;;;;;0.62;73.43;100511.13;4991795;28;20066;-79
2024/01/09 01:52:58;;;;;;;38.38;17.40;;;;;;;0.59;73.52;100518.75;4991621;28;20026;-79
2024/01/09 01:55:25;;;;;;;43.78;18.20;;;;;;;0.57;73.64;100514.38;4991589;28;20430;-79
2024/01/09 01:57:53;;;;;;;39.63;16.42;;;;;;;0.55;73.81;100516.03;4991613;28;20036;-80
2024/01/09 02:00:20;;;;;;;38.67;15.50;;;;;;;0.52;73.77;100520.22;4991102;28;20484;-79
2024/01/09 02:02:50;;;;;;;37.33;15.73;;;;;;;0.51;73.57;100529.69;5006864;28;20042;-79
2024/01/09 02:05:17;;;;;;;37.15;15.60;;;;;;;0.47;73.90;100519.13;4993462;28;20030;-79
2024/01/09 02:07:45;;;;;;;33.35;15.35;;;;;;;0.45;74.03;100521.66;5011138;28;20030;-81
2024/01/09 02:10:11;;;;;;;39.10;16.13;;;;;;;0.42;74.02;100522.41;5010717;28;20046;-84
2024/01/09 02:12:37;;;;;;;43.10;17.10;;;;;;;0.40;74.04;100528.38;5011091;28;20481;-80
2024/01/09 02:15:03;;;;;;;37.65;15.60;;;;;;;0.35;73.98;100524.69;5007110;28;20019;-79
2024/01/09 02:17:29;;;;;;;38.17;15.23;;;;;;;0.33;73.97;100534.09;4991057;28;20034;-79
2024/01/09 02:19:54;;;;;;;36.87;16.20;;;;;;;0.31;73.99;100531.47;4991090;28;20049;-80
2024/01/09 02:22:19;;;;;;;34.57;15.00;;;;;;;0.31;74.28;100535.75;4992292;28;20390;-80
2024/01/09 02:24:45;;;;;;;36.78;16.23;;;;;;;0.32;73.76;100532.34;5000416;28;20029;-80
2024/01/09 02:27:30;;;;;;;40.10;16.60;;;;;;;0.31;73.42;100540.94;4992811;28;20069;-79
2024/01/09 02:29:56;;;;;;;40.53;16.30;;;;;;;0.30;74.00;100544.34;4972781;28;20105;-81
2024/01/09 02:32:22;;;;;;;38.83;15.10;;;;;;;0.30;73.88;100539.16;4991190;28;20053;-81
2024/01/09 02:34:48;;;;;;;36.05;14.65;;;;;;;0.29;73.47;100538.28;4990868;28;20526;-83
2024/01/09 02:37:14;;;;;;;36.03;16.10;;;;;;;0.32;73.66;100542.69;4990795;28;20037;-79
2024/01/09 02:39:39;;;;;;;38.43;16.37;;;;;;;0.31;73.80;100531.47;4973464;28;20555;-80
2024/01/09 02:42:05;;;;;;;35.73;14.70;;;;;;;0.31;73.44;100536.66;4990975;28;20014;-79
2024/01/09 02:44:30;;;;;;;38.97;15.80;;;;;;;0.30;73.75;100528.78;4990208;28;20524;-78
2024/01/09 02:46:55;;;;;;;40.10;16.23;;;;;;;0.30;73.39;100533.97;4990912;28;20030;-78
2024/01/09 02:49:21;;;;;;;38.90;15.27;;;;;;;0.24;73.88;100530.31;4990737;28;20471;-79
2024/01/09 02:51:46;;;;;;;34.80;14.70;;;;;;;0.18;73.32;100519.72;4990726;28;20038;-82
2024/01/09 02:54:12;;;;;;;34.53;15.13;;;;;;;0.15;74.16;100514.41;4990602;28;20104;-82
2024/01/09 02:56:37;;;;;;;37.05;16.40;;;;;;;0.14;73.45;100517.81;4990524;28;20040;-80
2024/01/09 02:59:03;;;;;;;32.83;14.93;;;;;;;0.10;74.29;100509.03;4990137;28;20050;-79
2024/01/09 03:01:29;;;;;;;37.00;14.25;;;;;;;0.10;74.18;100526.25;4990364;28;20035;-78
2024/01/09 03:03:54;;;;;;;36.43;13.87;;;;;;;0.10;73.62;100526.25;4999485;28;20125;-79
2024/01/09 03:06:20;;;;;;;36.37;14.33;;;;;;;0.11;74.04;100528.00;4992381;28;20576;-79
2024/01/09 03:08:45;;;;;;;35.57;15.03;;;;;;;0.12;73.53;100529.78;5010077;28;20506;-78
2024/01/09 03:11:10;;;;;;;37.70;14.68;;;;;;;0.11;73.97;100512.47;5009928;28;20490;-79
2024/01/09 03:13:36;;;;;;;38.27;14.23;;;;;;;0.07;73.92;100521.84;4991600;28;20517;-79
2024/01/09 03:16:01;;;;;;;33.73;14.20;;;;;;;0.06;73.93;100519.16;5001034;28;20033;-80
2024/01/09 03:18:26;;;;;;;38.47;14.83;;;;;;;0.04;73.93;100523.41;4994724;28;20030;-80
2024/01/09 03:20:52;;;;;;;31.90;13.20;;;;;;;0.03;73.85;100529.41;4990326;28;20034;-80
2024/01/09 03:23:17;;;;;;;31.03;12.63;;;;;;;0.03;74.25;100521.63;4990389;28;20677;-79
2024/01/09 03:25:43;;;;;;;32.87;13.33;;;;;;;0.03;74.25;100525.13;4999502;28;20030;-79
2024/01/09 03:28:08;;;;;;;36.80;14.13;;;;;;;0.05;74.09;100530.34;4990260;28;20089;-81
2024/01/09 03:30:33;;;;;;;36.60;14.33;;;;;;;0.05;73.92;100522.56;4989937;28;20030;-79
2024/01/09 03:32:59;;;;;;;34.43;13.63;;;;;;;0.06;74.37;100516.56;4995173;28;20035;-79
2024/01/09 03:35:24;;;;;;;30.27;13.27;;;;;;;0.06;73.78;100503.63;4996591;28;20777;-79
2024/01/09 03:37:50;;;;;;;34.17;13.07;;;;;;;0.08;73.89;100507.16;4996681;28;20364;-80
2024/01/09 03:40:15;;;;;;;34.97;13.53;;;;;;;0.10;74.26;100502.94;4978971;28;20066;-79
2024/01/09 03:42:40;;;;;;;34.73;13.93;;;;;;;0.13;73.79;100498.78;4996703;28;20033;-79
2024/01/09 03:45:06;;;;;;;34.10;13.53;;;;;;;0.16;73.99;100494.56;4996425;28;20038;-78
2024/01/09 03:47:32;;;;;;;35.57;13.93;;;;;;;0.16;73.65;100498.03;4997000;28;20272;-80
2024/01/09 03:49:57;;;;;;;33.40;13.73;;;;;;;0.15;74.25;100496.28;4996586;28;20388;-78
2024/01/09 03:52:23;;;;;;;35.70;13.83;;;;;;;0.14;73.58;100502.28;4996472;28;20034;-78
2024/01/09 03:54:48;;;;;;;34.43;14.23;;;;;;;0.14;73.71;100507.44;4996596;28;20060;-80
2024/01/09 03:57:14;;;;;;;33.60;13.50;;;;;;;0.13;74.00;100503.09;4996396;28;20475;-79
2024/01/09 03:59:41;;;;;;;34.67;13.93;;;;;;;0.12;73.44;100498.72;4995536;28;20566;-79
2024/01/09 04:02:07;;;;;;;35.15;14.27;;;;;;;0.10;73.64;100506.44;4996581;28;20036;-79
2024/01/09 04:04:32;;;;;;;35.03;13.67;;;;;;;0.10;73.71;100502.94;4996505;28;20514;-82
2024/01/09 04:06:58;;;;;;;38.47;15.30;;;;;;;0.12;73.72;100503.88;5012359;28;20053;-79
2024/01/09 04:09:23;;;;;;;40.43;14.23;;;;;;;0.13;74.01;100505.69;5001445;28;20022;-79
2024/01/09 04:11:48;;;;;;;34.23;14.53;;;;;;;0.12;73.92;100498.72;4996359;28;20018;-80
2024/01/09 04:14:14;;;;;;;31.42;13.73;;;;;;;0.10;74.02;100501.25;4996068;28;20030;-78
2024/01/09 04:16:47;;;;;;;39.03;16.10;;;;;;;0.08;73.75;100500.31;5011896;28;20028;-79
2024/01/09 04:19:13;;;;;;;34.45;14.32;;;;;;;0.07;74.07;100495.94;4996281;28;20088;-79
2024/01/09 04:21:38;;;;;;;39.77;15.87;;;;;;;0.05;74.27;100494.09;4978920;28;20037;-79
2024/01/09 04:24:03;;;;;;;35.90;14.20;;;;;;;0.02;73.95;100501.75;4998818;28;20029;-79
2024/01/09 04:26:29;;;;;;;36.87;15.63;;;;;;;-0.01;73.78;100492.13;5003159;28;20101;-79
2024/01/09 04:28:54;;;;;;;39.05;15.45;;;;;;;-0.05;73.99;100493.72;4996121;28;20032;-79
2024/01/09 04:31:23;;;;;;;36.97;15.60;;;;;;;-0.09;74.47;100504.78;4996190;28;20062;-82
2024/01/09 04:33:49;;;;;;;35.45;14.40;;;;;;;-0.13;73.92;100500.25;4996024;28;20054;-79
2024/01/09 04:36:16;;;;;;;33.83;14.23;;;;;;;-0.15;73.86;100496.72;4978231;28;20461;-79
2024/01/09 04:38:42;;;;;;;33.33;13.43;;;;;;;-0.20;74.50;100499.13;4996033;28;20101;-82
2024/01/09 04:41:07;;;;;;;35.72;14.68;;;;;;;-0.21;74.32;100504.22;4996192;28;20028;-80
2024/01/09 04:43:33;;;;;;;38.23;15.10;;;;;;;-0.21;74.52;100494.78;4994128;28;20449;-84
2024/01/09 04:45:58;;;;;;;32.77;13.43;;;;;;;-0.21;74.36;100499.94;4992851;28;20045;-82
2024/01/09 04:48:23;;;;;;;35.53;13.43;;;;;;;-0.19;74.39;100500.91;4993131;28;20033;-82
2024/01/09 04:50:49;;;;;;;34.97;14.53;;;;;;;-0.18;74.08;100488.81;4992922;28;20026;-83
2024/01/09 04:53:15;;;;;;;33.30;13.20;;;;;;;-0.18;74.68;100494.00;4991533;28;20062;-81
2024/01/09 04:55:40;;;;;;;32.83;12.73;;;;;;;-0.17;74.14;100491.50;4992725;28;20054;-80
2024/01/09 04:58:05;;;;;;;31.15;14.00;;;;;;;-0.15;74.44;100495.03;4992397;28;20110;-80
2024/01/09 05:00:31;;;;;;;39.50;14.70;;;;;;;-0.11;74.09;100493.47;4992255;28;20042;-81
2024/01/09 05:02:56;;;;;;;37.07;14.50;;;;;;;-0.10;74.44;100487.47;5010072;28;20037;-80
2024/01/09 05:05:22;;;;;;;50.87;17.97;;;;;;;-0.07;74.33;100482.41;5002476;28;20105;-80
2024/01/09 05:07:47;;;;;;;48.10;17.27;;;;;;;-0.05;74.53;100485.94;5012276;28;20025;-79
2024/01/09 05:10:12;;;;;;;52.15;19.00;;;;;;;-0.05;74.46;100482.47;5011993;28;20128;-80
2024/01/09 05:12:38;;;;;;;49.83;17.43;;;;;;;-0.06;74.46;100484.19;5012123;28;20034;-79
2024/01/09 05:15:04;;;;;;;49.53;17.30;;;;;;;-0.05;73.82;100475.59;4990365;28;20018;-82
2024/01/09 05:17:29;;;;;;;45.80;17.45;;;;;;;-0.04;74.07;100486.81;4992254;28;20018;-79
2024/01/09 05:19:55;;;;;;;49.77;17.37;;;;;;;-0.06;73.75;100484.19;4992265;28;20038;-80
2024/01/09 05:22:20;;;;;;;46.55;17.20;;;;;;;-0.08;73.96;100491.00;4992138;28;20097;-79
2024/01/09 05:24:45;;;;;;;45.43;16.90;;;;;;;-0.12;74.01;100491.69;5000734;28;20049;-80
2024/01/09 05:27:11;;;;;;;47.07;17.07;;;;;;;-0.19;74.25;100497.41;4996930;28;20026;-80
2024/01/09 05:29:38;;;;;;;45.07;16.37;;;;;;;-0.26;74.36;100501.41;5011513;28;20105;-81
2024/01/09 05:32:04;;;;;;;38.88;15.02;;;;;;;-0.31;74.50;100503.84;5008756;28;20499;-80
2024/01/09 05:34:30;;;;;;;39.70;15.02;;;;;;;-0.35;74.33;100496.75;4991844;28;20030;-80
2024/01/09 05:36:55;;;;;;;33.73;14.17;;;;;;;-0.37;74.47;100508.72;4991952;28;20105;-81
2024/01/09 05:39:21;;;;;;;34.93;13.30;;;;;;;-0.42;74.54;100510.22;4991973;28;20029;-81
2024/01/09 05:41:46;;;;;;;36.33;12.63;;;;;;;-0.47;74.62;100504.88;4992071;28;20545;-80
2024/01/09 05:44:12;;;;;;;36.90;13.43;;;;;;;-0.48;74.83;100494.44;4991732;28;20049;-82
2024/01/09 05:46:37;;;;;;;37.73;13.63;;;;;;;-0.51;74.84;100499.47;4991898;28;20030;-80
2024/01/09 05:49:02;;;;;;;31.83;13.57;;;;;;;-0.55;74.84;100497.56;4991868;28;20031;-80
2024/01/09 05:51:28;;;;;;;29.47;12.97;;;;;;;-0.63;74.76;100499.81;4991797;28;20030;-83
2024/01/09 05:53:53;;;;;;;34.17;13.20;;;;;;;-0.65;74.57;100504.03;4991641;28;20054;-82
2024/01/09 05:56:18;;;;;;;32.87;12.23;;;;;;;-0.66;74.85;100505.72;4990404;28;20050;-85
2024/01/09 05:58:44;;;;;;;32.43;12.83;;;;;;;-0.65;75.09;100504.91;4990966;28;20056;-82
2024/01/09 06:01:11;;;;;;;37.33;13.97;;;;;;;-0.65;74.57;100502.31;4991479;28;20034;-85
2024/01/09 06:03:36;;;;;;;33.53;12.90;;;;;;;-0.66;75.02;100516.06;4991591;28;20026;-82
2024/01/09 06:06:01;;;;;;;36.13;13.20;;;;;;;-0.67;74.69;100503.06;4999832;28;20030;-82
2024/01/09 06:08:27;;;;;;;32.47;13.23;;;;;;;-0.70;74.66;100508.97;4983723;28;20049;-82
2024/01/09 06:10:53;;;;;;;31.30;13.38;;;;;;;-0.71;74.63;100524.44;5005881;28;20526;-82
2024/01/09 06:13:18;;;;;;;33.57;12.83;;;;;;;-0.76;74.43;100524.22;4998330;28;20034;-83
2024/01/09 06:15:44;;;;;;;29.87;12.00;;;;;;;-0.82;74.40;100519.66;5004297;28;20026;-83
2024/01/09 06:18:09;;;;;;;28.23;11.93;;;;;;;-0.89;74.87;100522.78;4997578;28;20038;-80
2024/01/09 06:20:35;;;;;;;29.50;11.67;;;;;;;-0.93;74.72;100516.56;4974630;28;20040;-81
2024/01/09 06:23:00;;;;;;;34.30;11.87;;;;;;;-0.95;74.68;100520.78;4991006;28;20430;-82
2024/01/09 06:25:25;;;;;;;34.30;13.75;;;;;;;-0.96;74.68;100516.44;4999584;28;20050;-81
2024/01/09 06:27:51;;;;;;;35.70;13.13;;;;;;;-0.97;74.92;100509.47;4981093;28;20042;-82
2024/01/09 06:30:17;;;;;;;39.30;13.13;;;;;;;-0.97;74.72;100509.47;4987412;28;21001;-81
2024/01/09 06:32:42;;;;;;;34.13;12.23;;;;;;;-0.96;74.56;100508.66;4986515;28;20057;-82
2024/01/09 06:35:08;;;;;;;32.23;12.43;;;;;;;-0.95;74.65;100507.84;4992863;28;20117;-81
2024/01/09 06:37:34;;;;;;;35.05;12.90;;;;;;;-0.92;74.56;100508.00;4972588;28;20064;-81
2024/01/09 06:39:59;;;;;;;35.40;13.83;;;;;;;-0.90;74.55;100496.03;4990603;28;20614;-82
2024/01/09 06:42:25;;;;;;;35.47;12.53;;;;;;;-0.91;74.56;100514.94;4990281;28;20057;-81
2024/01/09 06:44:50;;;;;;;33.30;12.73;;;;;;;-0.91;74.67;100512.34;4990960;28;20053;-82
2024/01/09 06:47:15;;;;;;;37.83;14.23;;;;;;;-0.88;74.72;100509.91;4990414;28;20353;-83
2024/01/09 06:49:42;;;;;;;40.73;14.93;;;;;;;-0.87;74.64;100514.25;4990400;28;20052;-82
2024/01/09 06:52:07;;;;;;;43.50;15.02;;;;;;;-0.85;74.49;100516.03;4989794;28;20041;-81
2024/01/09 06:54:32;;;;;;;37.57;14.00;;;;;;;-0.83;74.59;100514.44;4990015;28;20038;-82
2024/01/09 06:56:58;;;;;;;46.30;15.50;;;;;;;-0.82;74.44;100511.91;4989510;28;20491;-83
2024/01/09 06:59:23;;;;;;;41.47;16.60;;;;;;;-0.83;74.67;100517.00;4968613;28;20062;-82
2024/01/09 07:01:48;;;;;;;44.70;16.33;;;;;;;-0.82;74.66;100518.78;4964757;28;20038;-83
2024/01/09 07:04:15;;;;;;;43.07;16.63;;;;;;;-0.85;74.67;100513.44;4971193;28;20065;-90
2024/01/09 07:06:40;;;;;;;42.65;16.27;;;;;;;-0.87;74.69;100511.66;4977746;28;20426;-81
2024/01/09 07:09:05;;;;;;;44.43;16.90;;;;;;;-0.87;74.16;100515.97;4970083;28;20034;-84
2024/01/09 07:11:31;;;;;;;44.60;17.40;;;;;;;-0.91;74.24;100516.66;4970107;28;20034;-83
2024/01/09 07:13:57;;;;;;;38.37;14.77;;;;;;;-0.94;74.77;100517.38;4971047;28;20043;-85
2024/01/09 07:16:22;;;;;;;35.90;15.32;;;;;;;-0.94;74.78;100514.78;4975298;28;20038;-84
2024/01/09 07:18:48;;;;;;;39.90;16.30;;;;;;;-0.94;74.55;100514.78;4971172;28;20088;-85
2024/01/09 07:21:13;;;;;;;42.47;17.27;;;;;;;-0.94;74.40;100512.22;4973661;28;20026;-85
2024/01/09 07:23:39;;;;;;;46.33;16.03;;;;;;;-0.95;74.84;100518.19;4975584;28;20679;-85
2024/01/09 07:26:04;;;;;;;40.17;15.07;;;;;;;-0.95;74.67;100517.31;4971624;28;20510;-87
2024/01/09 07:28:30;;;;;;;35.80;15.37;;;;;;;-0.95;74.71;100523.38;4974570;28;20041;-84
2024/01/09 07:30:56;;;;;;;39.85;15.70;;;;;;;-0.94;74.60;100519.09;4970121;28;20031;-83
2024/01/09 07:33:22;;;;;;;38.50;15.17;;;;;;;-0.98;74.17;100518.06;4964996;28;20546;-84
2024/01/09 07:35:47;;;;;;;39.85;16.10;;;;;;;-1.02;74.57;100516.16;4968353;28;20047;-83
2024/01/09 07:38:13;;;;;;;39.27;15.13;;;;;;;-1.05;74.60;100521.19;4970200;28;20104;-86
2024/01/09 07:40:38;;;;;;;35.03;14.60;;;;;;;-1.07;74.53;100522.81;4969626;28;20913;-83
2024/01/09 07:43:04;;;;;;;34.13;14.60;;;;;;;-1.08;74.92;100521.03;4975384;28;20281;-89
2024/01/09 07:45:29;;;;;;;39.33;15.77;;;;;;;-1.08;74.83;100516.72;4968707;28;20038;-85
2024/01/09 07:47:56;;;;;;;40.53;15.77;;;;;;;-1.08;74.63;100511.56;4968354;28;20591;-87
2024/01/09 07:50:21;;;;;;;37.97;15.17;;;;;;;-1.10;74.57;100520.94;4972336;28;20097;-88
2024/01/09 07:52:47;;;;;;;43.90;14.98;;;;;;;-1.12;74.44;100520.00;4971793;28;20031;-87
2024/01/09 07:55:13;;;;;;;38.13;15.80;;;;;;;-1.09;74.17;100524.41;4969799;28;20113;-86
2024/01/09 07:57:38;;;;;;;43.28;16.95;;;;;;;-1.09;74.63;100521.81;4970773;28;20027;-87
2024/01/09 08:00:04;;;;;;;38.00;15.33;;;;;;;-1.09;74.48;100516.66;4984987;28;20096;-86
2024/01/09 08:02:30;;;;;;;40.30;15.30;;;;;;;-1.04;74.32;100517.78;4972570;28;20608;-86
2024/01/09 08:04:55;;;;;;;39.10;15.53;;;;;;;-0.93;74.34;100521.72;4989935;28;20062;-84
2024/01/09 08:07:21;;;;;;;39.05;15.73;;;;;;;-0.78;74.27;100515.50;4991139;28;20030;-86
2024/01/09 08:09:46;;;;;;;34.33;15.37;;;;;;;-0.62;73.71;100512.78;4988711;28;20149;-84
2024/01/09 08:12:12;;;;;;;48.87;16.57;;;;;;;-0.44;73.74;100517.03;5002416;28;20038;-85
2024/01/09 08:14:37;;;;;;;40.05;15.93;;;;;;;-0.27;73.15;100507.41;5004705;28;20204;-85
2024/01/09 08:17:03;;;;;;;42.10;16.43;;;;;;;-0.11;72.81;100509.00;4993987;28;20458;-85
2024/01/09 08:19:28;;;;;;;40.33;17.40;;;;;;;0.07;72.79;100520.94;4996333;28;20026;-85
2024/01/09 08:21:54;;;;;;;40.03;18.20;;;;;;;0.17;72.44;100523.13;4994777;28;20091;-84
2024/01/09 08:24:20;;;;;;;42.80;17.27;;;;;;;0.20;71.65;100533.59;4993295;28;20110;-83
2024/01/09 08:26:49;;;;;;;43.07;17.73;;;;;;;0.19;72.13;100537.00;4993592;28;20085;-83
2024/01/09 08:29:17;;;;;;;49.78;18.55;;;;;;;0.22;72.14;100541.41;4994250;28;20033;-84
2024/01/09 08:31:46;;;;;;;40.75;17.15;;;;;;;0.27;71.77;100535.63;4993734;28;20034;-81
2024/01/09 08:34:12;;;;;;;44.70;18.33;;;;;;;0.39;72.34;100534.38;5002761;28;20080;-78
2024/01/09 08:36:38;;;;;;;42.80;17.67;;;;;;;0.52;72.24;100531.47;4991769;28;20398;-84
2024/01/09 08:39:04;;;;;;;43.70;18.15;;;;;;;0.68;72.23;100537.28;5000691;28;20110;-84
2024/01/09 08:41:30;;;;;;;46.00;17.73;;;;;;;0.81;71.66;100525.69;5005731;28;20049;-82
2024/01/09 08:43:55;;;;;;;38.05;14.90;;;;;;;0.92;71.05;100524.38;5010725;28;20029;-83
2024/01/09 08:46:20;;;;;;;37.13;15.33;;;;;;;1.02;71.34;100533.41;5001002;28;20117;-82
2024/01/09 08:48:46;;;;;;;36.37;15.57;;;;;;;1.11;71.09;100527.72;4994691;28;20403;-82
2024/01/09 08:51:12;;;;;;;36.15;15.80;;;;;;;1.23;70.97;100528.19;4998585;28;20107;-82
2024/01/09 08:53:38;;;;;;;42.03;16.10;;;;;;;1.37;71.25;100541.69;4992757;28;20116;-82
2024/01/09 08:56:04;;;;;;;35.63;14.57;;;;;;;1.51;71.01;100528.31;4979853;28;20264;-81
2024/01/09 08:58:31;;;;;;;33.10;13.77;;;;;;;1.61;71.38;100525.25;4998765;28;20580;-82
2024/01/09 09:00:56;;;;;;;34.67;15.07;;;;;;;1.69;70.80;100529.00;5000793;28;20088;-82
2024/01/09 09:03:21;;;;;;;36.63;14.37;;;;;;;1.80;70.81;100526.81;4992832;28;20069;-82
2024/01/09 09:05:47;;;;;;;39.37;15.10;;;;;;;1.92;70.55;100536.75;5003567;28;20105;-80
2024/01/09 09:08:13;;;;;;;36.20;13.55;;;;;;;2.04;70.22;100533.69;4994095;28;20034;-82
2024/01/09 09:10:38;;;;;;;31.67;12.17;;;;;;;2.14;70.76;100535.78;4992763;28;20046;-82
2024/01/09 09:13:04;;;;;;;30.73;12.87;;;;;;;2.27;70.79;100538.81;4999079;28;20045;-82
2024/01/09 09:15:30;;;;;;;34.28;12.75;;;;;;;2.36;69.89;100543.44;5002166;28;20040;-82
2024/01/09 09:17:55;;;;;;;35.30;12.50;;;;;;;2.43;70.44;100556.69;4997151;28;20034;-83
2024/01/09 09:20:22;;;;;;;30.33;11.60;;;;;;;2.54;70.27;100563.97;4998416;28;20505;-81
2024/01/09 09:22:48;;;;;;;26.35;11.10;;;;;;;2.62;69.99;100574.63;5001557;28;20601;-81
2024/01/09 09:25:13;;;;;;;27.77;11.40;;;;;;;2.65;69.62;100572.13;4996884;28;20061;-81
2024/01/09 09:27:41;;;;;;;28.80;11.60;;;;;;;2.56;69.75;100568.38;4995287;28;20030;-81
2024/01/09 09:30:09;;;;;;;31.17;11.25;;;;;;;2.45;69.80;100569.72;4993271;28;20026;-81
2024/01/09 09:32:35;;;;;;;27.48;10.85;;;;;;;2.44;70.15;100567.97;5001140;28;20604;-85
2024/01/09 09:35:01;;;;;;;28.23;12.10;;;;;;;2.48;70.32;100579.34;5003119;28;20121;-82
2024/01/09 09:37:26;;;;;;;30.67;11.82;;;;;;;2.54;70.51;100570.06;5001816;28;20049;-87
2024/01/09 09:39:52;;;;;;;32.33;12.50;;;;;;;2.63;71.02;100578.97;5007567;28;20556;-86
2024/01/09 09:42:20;;;;;;;28.73;12.97;;;;;;;2.69;70.36;100569.69;5004858;28;20033;-83
2024/01/09 09:44:53;;;;;;;31.50;11.77;;;;;;;2.77;70.01;100571.63;5000255;28;20034;-83
2024/01/09 09:47:21;;;;;;;25.98;11.10;;;;;;;2.84;70.28;100574.50;4993608;28;20034;-79
2024/01/09 09:49:48;;;;;;;24.83;10.35;;;;;;;2.93;70.01;100580.81;5001126;28;20044;-79
2024/01/09 09:52:14;;;;;;;24.47;9.17;;;;;;;2.94;69.94;100582.59;4996961;28;20034;-82
2024/01/09 09:54:40;;;;;;;24.38;10.45;;;;;;;2.95;69.44;100572.25;5007294;28;20040;-84
2024/01/09 09:57:06;;;;;;;23.58;9.98;;;;;;;3.03;69.41;100574.19;4997610;28;20029;-82
2024/01/09 09:59:31;;;;;;;26.43;11.63;;;;;;;3.13;69.46;100579.72;5003930;28;20057;-86
2024/01/09 10:01:57;;;;;;;25.50;10.55;;;;;;;3.26;69.69;100577.53;5005589;28;20095;-80
2024/01/09 10:04:41;;;;;;;25.85;11.15;;;;;;;3.40;68.13;100575.34;4994337;28;20046;-84
2024/01/09 10:07:06;;;;;;;29.23;10.43;;;;;;;3.52;69.06;100578.31;4995462;28;20053;-83
2024/01/09 10:09:34;;;;;;;27.30;10.80;;;;;;;3.67;69.04;100574.41;4997478;28;20613;-85
2024/01/09 10:12:00;;;;;;;26.10;11.15;;;;;;;3.74;68.80;100576.31;4999559;28;20041;-81
2024/01/09 10:14:26;;;;;;;27.73;10.73;;;;;;;3.78;68.62;100572.97;4995790;28;20046;-81
2024/01/09 10:16:55;;;;;;;26.40;10.73;;;;;;;3.87;68.22;100577.56;4993369;28;20031;-85
2024/01/09 10:19:22;;;;;;;27.13;10.55;;;;;;;4.02;68.36;100574.50;4986854;28;20037;-80
2024/01/09 10:21:48;;;;;;;28.20;11.13;;;;;;;4.17;68.02;100568.81;4993825;28;20510;-80
2024/01/09 10:24:15;;;;;;;24.08;9.93;;;;;;;4.35;67.86;100571.06;4997011;28;20026;-80
2024/01/09 10:26:40;;;;;;;21.58;9.90;;;;;;;4.40;67.45;100563.34;4996937;28;20030;-80
2024/01/09 10:29:09;;;;;;;26.97;10.53;;;;;;;4.45;66.29;100577.34;4995424;28;20021;-83
2024/01/09 10:31:34;;;;;;;23.27;10.30;;;;;;;4.56;65.63;100565.50;4980033;28;20034;-82
2024/01/09 10:34:00;;;;;;;22.77;9.80;;;;;;;4.60;65.96;100564.72;5005258;28;20057;-79
2024/01/09 10:36:27;;;;;;;25.93;10.10;;;;;;;4.67;66.09;100560.56;5005055;28;20280;-81
2024/01/09 10:39:01;;;;;;;23.23;10.20;;;;;;;4.81;66.03;100550.44;4993505;28;20518;-82
2024/01/09 10:41:27;;;;;;;24.90;10.07;;;;;;;4.95;65.81;100547.31;5006689;28;20197;-79
2024/01/09 10:43:52;;;;;;;24.40;9.68;;;;;;;5.13;65.56;100546.84;5003685;28;20044;-83
2024/01/09 10:46:23;;;;;;;22.20;9.00;;;;;;;5.25;65.35;100543.63;4994138;28;20038;-84
2024/01/09 10:48:50;;;;;;;23.70;8.35;;;;;;;5.08;64.49;100543.25;4971167;28;20048;-80
2024/01/09 10:51:17;;;;;;;24.25;8.65;;;;;;;4.80;64.26;100553.91;4994115;28;20034;-86
2024/01/09 10:53:44;;;;;;;20.07;8.00;;;;;;;4.81;65.24;100554.78;4975952;28;20069;-82
2024/01/09 10:56:14;;;;;;;21.35;8.68;;;;;;;5.04;65.14;100547.50;5004071;28;20061;-87
2024/01/09 10:58:40;;;;;;;23.05;8.88;;;;;;;5.28;65.15;100535.84;4993161;28;20042;-83
2024/01/09 11:01:05;;;;;;;21.70;8.68;;;;;;;5.45;64.50;100524.03;5004788;28;20084;-80
2024/01/09 11:03:31;;;;;;;25.73;9.83;;;;;;;5.53;63.06;100525.94;4993125;28;20064;-87
2024/01/09 11:05:59;;;;;;;22.93;8.47;;;;;;;5.55;63.37;100525.13;4998073;28;20083;-88
2024/01/09 11:08:25;;;;;;;20.88;9.38;;;;;;;5.67;63.90;100515.75;5001230;28;20543;-84